TimeMDT,TemperatureF,Dew PointF,Humidity,Sea Level PressureIn,VisibilityMPH,Wind Direction,Wind SpeedMPH,Gust SpeedMPH,PrecipitationIn,Events,Conditions,WindDirDegrees,DateUTC
12:53 AM,26.1,21.0,81,30.14,10.0,NNW,10.4,-,N/A,,Mostly Cloudy,330,2013-03-10 07:53:00
1:53 AM,26.1,19.9,78,30.15,10.0,NNW,12.7,19.6,N/A,,Clear,340,2013-03-10 08:53:00
3:53 AM,25.0,17.1,72,30.16,10.0,NNW,11.5,-,N/A,,Mostly Cloudy,340,2013-03-10 09:53:00
4:53 AM,24.1,14.0,65,30.19,10.0,NNW,10.4,17.3,N/A,,Mostly Cloudy,340,2013-03-10 10:53:00
6:53 AM,19.0,10.0,68,30.24,10.0,NNW,9.2,-,N/A,,Clear,340,2013-03-10 12:53:00
7:53 AM,21.0,12.9,71,30.24,10.0,NNW,12.7,-,N/A,,Clear,330,2013-03-10 13:53:00
8:53 AM,25.0,15.1,66,30.24,10.0,NW,8.1,-,N/A,,Clear,310,2013-03-10 14:53:00
9:53 AM,30.0,16.0,56,30.22,10.0,NW,17.3,25.3,N/A,,Clear,320,2013-03-10 15:53:00
10:53 AM,33.1,14.0,46,30.20,10.0,NNW,17.3,25.3,N/A,,Clear,340,2013-03-10 16:53:00
11:53 AM,36.0,9.0,33,30.19,10.0,NNW,19.6,29.9,N/A,,Clear,340,2013-03-10 17:53:00
12:53 PM,39.9,7.0,26,30.15,10.0,NNW,18.4,28.8,N/A,,Clear,340,2013-03-10 18:53:00
1:53 PM,43.0,7.0,23,30.11,10.0,NW,19.6,25.3,N/A,,Clear,320,2013-03-10 19:53:00
2:53 PM,46.0,6.1,20,30.08,10.0,NNW,15.0,26.5,N/A,,Clear,330,2013-03-10 20:53:00
3:53 PM,48.0,8.1,20,30.07,10.0,North,18.4,28.8,N/A,,Clear,350,2013-03-10 21:53:00
4:53 PM,48.9,12.0,23,30.05,10.0,North,16.1,23.0,N/A,,Clear,350,2013-03-10 22:53:00
5:53 PM,48.9,14.0,25,30.05,10.0,NNW,11.5,17.3,N/A,,Clear,340,2013-03-10 23:53:00
6:53 PM,45.0,14.0,29,30.07,10.0,NNW,8.1,-,N/A,,Clear,340,2013-03-11 00:53:00
7:53 PM,37.9,15.1,39,30.08,10.0,WSW,4.6,-,N/A,,Clear,240,2013-03-11 01:53:00
8:53 PM,37.9,12.9,36,30.06,10.0,Calm,Calm,-,N/A,,Clear,0,2013-03-11 02:53:00
9:53 PM,30.0,16.0,56,30.07,10.0,Variable,4.6,-,N/A,,Clear,0,2013-03-11 03:53:00
10:53 PM,34.0,14.0,44,30.04,10.0,NW,4.6,-,N/A,,Clear,310,2013-03-11 04:53:00
11:53 PM,27.0,18.0,69,30.03,10.0,ENE,8.1,-,N/A,,Clear,70,2013-03-11 05:53:00
12:53 AM,26.1,18.0,71,30.00,10.0,ENE,5.8,-,N/A,,Clear,70,2013-03-11 06:53:00